createdAt,value
2024-02-03T00:00:24.112Z,31.40
2024-02-03T00:01:24.060Z,30.40
2024-02-03T00:02:24.050Z,31.90
2024-02-03T00:03:24.028Z,33.00
2024-02-03T00:04:24.074Z,31.90
2024-02-03T00:05:24.006Z,31.80
2024-02-03T00:06:24.078Z,30.80
2024-02-03T00:07:24.038Z,33.00
2024-02-03T00:08:23.997Z,30.30
2024-02-03T00:09:24.032Z,30.60
2024-02-03T00:10:23.956Z,32.70
2024-02-03T00:11:26.464Z,30.70
2024-02-03T00:12:23.971Z,28.80
2024-02-03T00:13:23.938Z,28.00
2024-02-03T00:14:23.917Z,31.00
2024-02-03T00:15:23.940Z,31.60
2024-02-03T00:16:23.890Z,33.30
2024-02-03T00:17:23.909Z,30.00
2024-02-03T00:18:23.936Z,31.60
2024-02-03T00:19:23.870Z,29.80
2024-02-03T00:20:23.839Z,29.80
2024-02-03T00:21:23.854Z,29.60
2024-02-03T00:22:23.834Z,31.10
2024-02-03T00:23:23.838Z,27.10
2024-02-03T00:24:23.824Z,28.10
2024-02-03T00:25:23.783Z,29.40
2024-02-03T00:26:23.777Z,29.30
2024-02-03T00:27:23.789Z,27.80
2024-02-03T00:28:23.759Z,28.30
2024-02-03T00:29:23.737Z,29.80
2024-02-03T00:30:23.784Z,31.20
2024-02-03T00:31:23.759Z,29.30
2024-02-03T00:32:23.789Z,28.00
2024-02-03T00:33:23.907Z,31.00
2024-02-03T00:34:23.755Z,29.20
2024-02-03T00:35:23.672Z,28.30
2024-02-03T00:36:23.726Z,27.30
2024-02-03T00:37:23.661Z,29.70
2024-02-03T00:38:23.644Z,28.20
2024-02-03T00:39:23.656Z,28.70
2024-02-03T00:40:23.703Z,27.30
2024-02-03T00:41:23.676Z,28.00
2024-02-03T00:42:23.612Z,30.40
2024-02-03T00:43:23.582Z,29.90
2024-02-03T00:44:23.586Z,29.90
2024-02-03T00:45:23.594Z,26.30
2024-02-03T00:46:23.583Z,29.60
2024-02-03T00:47:23.563Z,28.90
2024-02-03T00:48:23.709Z,27.70
2024-02-03T00:49:23.580Z,25.90
2024-02-03T00:50:23.569Z,29.00
2024-02-03T00:51:23.559Z,29.00
2024-02-03T00:52:23.496Z,28.30
2024-02-03T00:53:23.482Z,28.00
2024-02-03T00:54:23.531Z,30.00
2024-02-03T00:55:23.552Z,29.70
2024-02-03T00:56:23.457Z,26.80
2024-02-03T00:57:23.467Z,24.60
2024-02-03T00:58:23.431Z,30.40
2024-02-03T00:59:23.427Z,26.50
2024-02-03T01:00:23.416Z,27.70
2024-02-03T01:01:23.425Z,25.90
2024-02-03T01:02:23.376Z,26.50
2024-02-03T01:03:23.410Z,24.40
2024-02-03T01:04:23.524Z,28.10
2024-02-03T01:05:23.409Z,26.50
2024-02-03T01:06:23.498Z,26.80
2024-02-03T01:07:23.340Z,26.00
2024-02-03T01:08:23.317Z,27.30
2024-02-03T01:09:23.362Z,27.60
2024-02-03T01:10:23.287Z,26.50
2024-02-03T01:11:23.281Z,25.40
2024-02-03T01:12:23.308Z,25.00
2024-02-03T01:13:23.301Z,24.70
2024-02-03T01:14:23.255Z,24.90
2024-02-03T01:15:23.290Z,27.20
2024-02-03T01:16:23.227Z,25.80
2024-02-03T01:17:23.228Z,27.80
2024-02-03T01:18:23.314Z,27.70
2024-02-03T01:19:23.289Z,25.50
2024-02-03T01:20:23.183Z,26.20
2024-02-03T01:21:23.199Z,30.00
2024-02-03T01:22:23.159Z,26.30
2024-02-03T01:23:23.173Z,25.90
2024-02-03T01:24:23.167Z,26.60
2024-02-03T01:25:23.145Z,25.00
2024-02-03T01:26:23.115Z,27.70
2024-02-03T01:27:23.147Z,29.40
2024-02-03T01:28:23.118Z,30.50
2024-02-03T01:29:23.093Z,27.00
2024-02-03T01:30:23.108Z,27.40
2024-02-03T01:31:23.071Z,26.70
2024-02-03T01:32:23.075Z,27.50
2024-02-03T01:33:23.185Z,25.80
2024-02-03T01:34:23.132Z,27.20
2024-02-03T01:35:23.027Z,25.00
2024-02-03T01:36:23.047Z,29.00
2024-02-03T01:37:23.011Z,25.50
2024-02-03T01:38:22.983Z,24.30
2024-02-03T01:39:22.996Z,27.90
2024-02-03T01:40:22.969Z,26.40
2024-02-03T01:41:22.955Z,25.00
2024-02-03T01:42:23.025Z,25.40
2024-02-03T01:43:22.935Z,26.00
2024-02-03T01:44:22.918Z,25.40
2024-02-03T01:45:22.941Z,27.60
2024-02-03T01:46:22.909Z,28.00
2024-02-03T01:47:22.954Z,25.70
2024-02-03T01:48:22.971Z,28.10
2024-02-03T01:49:22.920Z,25.00
2024-02-03T01:50:22.860Z,26.60
2024-02-03T01:51:22.875Z,27.50
2024-02-03T01:52:22.825Z,26.40
2024-02-03T01:53:22.836Z,25.00
2024-02-03T01:54:22.822Z,25.80
2024-02-03T01:55:22.794Z,27.90
2024-02-03T01:56:22.833Z,25.20
2024-02-03T01:57:22.821Z,27.30
2024-02-03T01:58:22.767Z,25.60
2024-02-03T01:59:22.756Z,25.50
2024-02-03T02:00:22.849Z,27.40
2024-02-03T02:01:23.166Z,26.30
2024-02-03T02:02:22.721Z,25.50
2024-02-03T02:03:22.790Z,27.90
2024-02-03T02:04:22.857Z,25.00
2024-02-03T02:05:22.699Z,24.70
2024-02-03T02:06:22.823Z,27.20
2024-02-03T02:07:22.741Z,25.70
2024-02-03T02:08:22.656Z,27.40
2024-02-03T02:09:22.651Z,26.40
2024-02-03T02:10:22.648Z,23.90
2024-02-03T02:11:22.626Z,26.70
2024-02-03T02:12:22.641Z,26.80
2024-02-03T02:13:22.603Z,25.10
2024-02-03T02:14:22.598Z,27.50
2024-02-03T02:15:22.620Z,27.30
2024-02-03T02:16:22.564Z,26.40
2024-02-03T02:17:22.579Z,27.10
2024-02-03T02:18:22.749Z,25.20
2024-02-03T02:19:22.754Z,24.60
2024-02-03T02:20:22.550Z,24.10
2024-02-03T02:21:22.583Z,24.60
2024-02-03T02:22:22.515Z,22.30
2024-02-03T02:23:22.494Z,26.90
2024-02-03T02:24:22.543Z,23.70
2024-02-03T02:25:22.469Z,24.30
2024-02-03T02:26:22.468Z,24.50
2024-02-03T02:27:22.514Z,23.10
2024-02-03T02:28:22.448Z,24.80
2024-02-03T02:29:22.435Z,25.40
2024-02-03T02:30:22.479Z,23.10
2024-02-03T02:31:22.398Z,22.90
2024-02-03T02:32:22.613Z,23.60
2024-02-03T02:33:22.550Z,22.50
2024-02-03T02:34:22.551Z,25.60
2024-02-03T02:35:22.356Z,24.10
2024-02-03T02:36:22.376Z,23.40
2024-02-03T02:37:22.377Z,29.00
2024-02-03T02:38:22.350Z,22.80
2024-02-03T02:39:22.356Z,22.70
2024-02-03T02:40:22.321Z,23.50
2024-02-03T02:41:22.291Z,24.90
2024-02-03T02:42:22.318Z,23.00
2024-02-03T02:43:22.284Z,23.80
2024-02-03T02:44:22.273Z,21.80
2024-02-03T02:45:22.275Z,23.30
2024-02-03T02:46:22.239Z,22.90
2024-02-03T02:47:22.236Z,23.40
2024-02-03T02:48:22.407Z,22.20
2024-02-03T02:49:22.263Z,21.70
2024-02-03T02:50:22.204Z,26.30
2024-02-03T02:51:22.228Z,24.60
2024-02-03T02:52:22.203Z,24.10
2024-02-03T02:53:22.156Z,24.00
2024-02-03T02:54:22.184Z,23.20
2024-02-03T02:55:22.163Z,25.10
2024-02-03T02:56:22.153Z,23.20
2024-02-03T02:57:22.189Z,23.30
2024-02-03T02:58:22.103Z,22.10
2024-02-03T02:59:22.093Z,23.60
2024-02-03T03:00:22.155Z,24.40
2024-02-03T03:01:22.149Z,23.40
2024-02-03T03:02:22.079Z,24.50
2024-02-03T03:03:22.091Z,24.60
2024-02-03T03:04:22.261Z,24.50
2024-02-03T03:05:22.028Z,23.40
2024-02-03T03:06:22.161Z,24.50
2024-02-03T03:07:22.146Z,22.60
2024-02-03T03:08:22.021Z,22.80
2024-02-03T03:09:21.997Z,25.10
2024-02-03T03:10:21.995Z,25.70
2024-02-03T03:11:21.971Z,23.60
2024-02-03T03:12:21.988Z,24.20
2024-02-03T03:13:21.935Z,23.30
2024-02-03T03:14:21.981Z,24.40
2024-02-03T03:15:21.958Z,22.60
2024-02-03T03:16:21.910Z,25.70
2024-02-03T03:17:21.895Z,24.60
2024-02-03T03:18:22.092Z,26.20
2024-02-03T03:19:22.029Z,23.30
2024-02-03T03:20:21.881Z,23.20
2024-02-03T03:21:21.952Z,21.60
2024-02-03T03:22:21.850Z,23.10
2024-02-03T03:23:21.878Z,20.80
2024-02-03T03:24:21.843Z,23.70
2024-02-03T03:25:21.818Z,22.40
2024-02-03T03:26:21.808Z,22.30
2024-02-03T03:27:21.843Z,22.00
2024-02-03T03:28:21.791Z,24.10
2024-02-03T03:29:21.777Z,22.20
2024-02-03T03:30:21.830Z,24.30
2024-02-03T03:31:21.740Z,23.40
2024-02-03T03:32:21.738Z,24.00
2024-02-03T03:33:21.784Z,22.50
2024-02-03T03:34:21.800Z,21.50
2024-02-03T03:35:21.701Z,23.30
2024-02-03T03:36:21.720Z,22.50
2024-02-03T03:37:21.691Z,22.80
2024-02-03T03:38:21.688Z,22.90
2024-02-03T03:39:21.720Z,22.50
2024-02-03T03:40:21.647Z,20.40
2024-02-03T03:41:21.632Z,20.20
2024-02-03T03:42:21.643Z,19.80
2024-02-03T03:43:21.658Z,20.00
2024-02-03T03:44:21.603Z,21.10
2024-02-03T03:45:21.615Z,20.30
2024-02-03T03:46:21.582Z,21.90
2024-02-03T03:47:21.564Z,19.40
2024-02-03T03:48:21.866Z,20.30
2024-02-03T03:49:21.571Z,22.10
2024-02-03T03:50:21.547Z,20.80
2024-02-03T03:51:21.575Z,21.50
2024-02-03T03:52:21.528Z,21.20
2024-02-03T03:53:21.509Z,20.60
2024-02-03T03:54:21.500Z,20.40
2024-02-03T03:55:21.482Z,21.10
2024-02-03T03:56:21.478Z,22.40
2024-02-03T03:57:21.520Z,20.90
2024-02-03T03:58:21.453Z,21.20
2024-02-03T03:59:21.434Z,22.90
2024-02-03T04:00:21.467Z,21.00
2024-02-03T04:01:21.429Z,21.30
2024-02-03T04:02:21.421Z,20.90
2024-02-03T04:03:21.485Z,18.70
2024-02-03T04:04:21.416Z,21.30
2024-02-03T04:05:21.371Z,19.60
2024-02-03T04:06:21.503Z,18.20
2024-02-03T04:07:21.369Z,20.40
2024-02-03T04:08:21.347Z,18.30
2024-02-03T04:09:21.334Z,20.90
2024-02-03T04:10:21.320Z,18.70
2024-02-03T04:11:21.313Z,19.60
2024-02-03T04:12:21.324Z,19.50
2024-02-03T04:13:21.292Z,19.20
2024-02-03T04:14:21.277Z,17.70
2024-02-03T04:15:21.318Z,19.30
2024-02-03T04:16:21.276Z,20.10
2024-02-03T04:17:21.239Z,19.50
2024-02-03T04:18:21.374Z,19.80
2024-02-03T04:19:21.316Z,18.10
2024-02-03T04:20:21.353Z,18.50
2024-02-03T04:21:21.201Z,18.50
2024-02-03T04:22:21.187Z,18.40
2024-02-03T04:23:21.176Z,17.50
2024-02-03T04:24:21.189Z,17.80
2024-02-03T04:25:21.193Z,17.90
2024-02-03T04:26:21.140Z,18.40
2024-02-03T04:27:21.135Z,18.20
2024-02-03T04:28:21.123Z,17.40
2024-02-03T04:29:21.102Z,19.30
2024-02-03T04:30:24.068Z,19.20
2024-02-03T04:31:21.084Z,16.90
2024-02-03T04:32:21.115Z,17.70
2024-02-03T04:33:21.146Z,20.10
2024-02-03T04:34:21.168Z,20.20
2024-02-03T04:35:21.048Z,17.90
2024-02-03T04:36:21.093Z,20.50
2024-02-03T04:37:21.020Z,16.70
2024-02-03T04:38:21.019Z,16.70
2024-02-03T04:39:21.088Z,18.60
2024-02-03T04:40:21.027Z,19.40
2024-02-03T04:41:20.977Z,20.80
2024-02-03T04:42:21.008Z,18.00
2024-02-03T04:43:20.950Z,16.80
2024-02-03T04:44:20.953Z,20.00
2024-02-03T04:45:20.974Z,18.00
2024-02-03T04:46:20.925Z,19.00
2024-02-03T04:47:20.964Z,17.30
2024-02-03T04:48:20.968Z,17.10
2024-02-03T04:49:21.069Z,19.10
2024-02-03T04:50:20.879Z,17.30
2024-02-03T04:51:20.877Z,19.50
2024-02-03T04:52:20.858Z,16.90
2024-02-03T04:53:20.854Z,17.90
2024-02-03T04:54:20.868Z,20.40
2024-02-03T04:55:20.819Z,17.40
2024-02-03T04:56:20.813Z,18.60
2024-02-03T04:57:20.823Z,17.90
2024-02-03T04:58:20.797Z,18.60
2024-02-03T04:59:20.779Z,17.00
2024-02-03T05:00:20.815Z,19.30
2024-02-03T05:01:20.797Z,18.30
2024-02-03T05:02:20.772Z,20.20
2024-02-03T05:03:20.837Z,19.60
2024-02-03T05:04:20.880Z,17.10
2024-02-03T05:05:20.731Z,17.00
2024-02-03T05:06:20.762Z,18.50
2024-02-03T05:07:20.771Z,17.40
2024-02-03T05:08:20.681Z,18.50
2024-02-03T05:09:20.705Z,18.20
2024-02-03T05:10:20.679Z,19.70
2024-02-03T05:11:20.652Z,18.60
2024-02-03T05:12:20.819Z,19.30
2024-02-03T05:13:20.619Z,17.40
2024-02-03T05:14:20.627Z,17.70
2024-02-03T05:15:20.708Z,17.40
2024-02-03T05:16:20.600Z,16.40
2024-02-03T05:17:20.570Z,17.60
2024-02-03T05:18:20.725Z,18.80
2024-02-03T05:19:20.932Z,16.80
2024-02-03T05:20:20.557Z,16.90
2024-02-03T05:21:20.552Z,18.30
2024-02-03T05:22:20.533Z,18.70
2024-02-03T05:23:20.514Z,16.20
2024-02-03T05:24:20.593Z,17.40
2024-02-03T05:25:20.501Z,18.20
2024-02-03T05:26:20.521Z,16.50
2024-02-03T05:27:20.587Z,17.70
2024-02-03T05:28:20.461Z,18.50
2024-02-03T05:29:20.440Z,17.40
2024-02-03T05:30:20.488Z,16.80
2024-02-03T05:31:20.421Z,16.50
2024-02-03T05:32:20.421Z,16.30
2024-02-03T05:33:20.554Z,15.70
2024-02-03T05:34:20.499Z,18.30
2024-02-03T05:35:20.384Z,16.80
2024-02-03T05:36:20.391Z,16.20
2024-02-03T05:37:20.353Z,15.70
2024-02-03T05:38:20.345Z,17.30
2024-02-03T05:39:20.417Z,15.70
2024-02-03T05:40:22.577Z,16.00
2024-02-03T05:41:20.315Z,16.00
2024-02-03T05:42:23.706Z,16.90
2024-02-03T05:43:20.284Z,15.70
2024-02-03T05:44:20.291Z,16.80
2024-02-03T05:45:20.286Z,15.80
2024-02-03T05:46:20.259Z,18.80
2024-02-03T05:47:20.252Z,16.40
2024-02-03T05:48:20.261Z,18.80
2024-02-03T05:49:20.310Z,16.70
2024-02-03T05:50:20.214Z,17.00
2024-02-03T05:51:20.221Z,18.60
2024-02-03T05:52:20.252Z,16.10
2024-02-03T05:53:20.185Z,16.20
2024-02-03T05:54:20.209Z,14.90
2024-02-03T05:55:20.196Z,14.90
2024-02-03T05:56:20.170Z,15.40
2024-02-03T05:57:20.321Z,15.70
2024-02-03T05:58:20.150Z,15.30
2024-02-03T05:59:32.717Z,16.90
2024-02-03T06:00:20.151Z,17.40
2024-02-03T06:01:20.179Z,14.60
2024-02-03T06:02:20.096Z,15.20
2024-02-03T06:03:20.123Z,16.10
2024-02-03T06:04:20.154Z,14.30
2024-02-03T06:05:20.066Z,14.40
2024-02-03T06:06:26.201Z,15.70
2024-02-03T06:07:20.142Z,16.00
2024-02-03T06:08:20.089Z,15.40
2024-02-03T06:09:20.040Z,15.90
2024-02-03T06:10:20.012Z,13.30
2024-02-03T06:11:19.998Z,14.80
2024-02-03T06:12:20.014Z,15.60
2024-02-03T06:13:19.960Z,15.30
2024-02-03T06:14:19.988Z,15.00
2024-02-03T06:15:19.987Z,13.60
2024-02-03T06:16:19.970Z,14.40
2024-02-03T06:17:19.952Z,15.40
2024-02-03T06:18:20.025Z,13.00
2024-02-03T06:19:19.988Z,15.00
2024-02-03T06:20:19.893Z,15.80
2024-02-03T06:21:19.905Z,15.50
2024-02-03T06:22:19.871Z,13.40
2024-02-03T06:23:19.849Z,14.40
2024-02-03T06:24:19.932Z,15.80
2024-02-03T06:25:19.829Z,14.70
2024-02-03T06:26:19.908Z,14.40
2024-02-03T06:27:19.833Z,14.90
2024-02-03T06:28:19.801Z,13.50
2024-02-03T06:29:19.799Z,14.50
2024-02-03T06:30:19.830Z,17.10
2024-02-03T06:31:19.785Z,15.30
2024-02-03T06:32:19.797Z,14.30
2024-02-03T06:33:19.928Z,16.20
2024-02-03T06:34:19.791Z,16.30
2024-02-03T06:35:19.750Z,16.10
2024-02-03T06:36:19.751Z,15.70
2024-02-03T06:37:19.699Z,19.00
2024-02-03T06:38:19.690Z,15.00
2024-02-03T06:39:19.771Z,15.30
2024-02-03T06:40:19.699Z,13.30
2024-02-03T06:41:19.679Z,18.00
2024-02-03T06:42:19.671Z,14.50
2024-02-03T06:43:19.641Z,13.60
2024-02-03T06:44:19.635Z,17.40
2024-02-03T06:45:19.659Z,15.00
2024-02-03T06:46:19.613Z,13.60
2024-02-03T06:47:19.585Z,14.30
2024-02-03T06:48:19.813Z,14.10
2024-02-03T06:49:19.701Z,14.70
2024-02-03T06:50:19.572Z,16.50
2024-02-03T06:51:19.634Z,13.80
2024-02-03T06:52:19.549Z,13.30
2024-02-03T06:53:19.520Z,13.90
2024-02-03T06:54:19.565Z,12.10
2024-02-03T06:55:19.504Z,13.50
2024-02-03T06:56:19.496Z,13.70
2024-02-03T06:57:19.514Z,13.70
2024-02-03T06:58:19.484Z,14.10
2024-02-03T06:59:19.471Z,14.20
2024-02-03T07:00:19.495Z,12.40
2024-02-03T07:01:19.496Z,12.90
2024-02-03T07:02:19.433Z,12.30
2024-02-03T07:03:19.462Z,12.70
2024-02-03T07:04:19.638Z,13.70
2024-02-03T07:05:19.396Z,14.90
2024-02-03T07:06:19.450Z,12.80
2024-02-03T07:07:19.440Z,14.70
2024-02-03T07:08:19.381Z,11.30
2024-02-03T07:09:19.382Z,13.20
2024-02-03T07:10:19.341Z,12.80
2024-02-03T07:11:19.328Z,13.90
2024-02-03T07:12:19.365Z,13.30
2024-02-03T07:13:19.329Z,11.80
2024-02-03T07:14:19.298Z,11.60
2024-02-03T07:15:19.305Z,12.40
2024-02-03T07:16:19.278Z,11.90
2024-02-03T07:17:19.278Z,12.50
2024-02-03T07:18:19.402Z,12.70
2024-02-03T07:19:19.312Z,12.20
2024-02-03T07:20:19.259Z,12.80
2024-02-03T07:21:19.245Z,10.20
2024-02-03T07:22:19.234Z,10.90
2024-02-03T07:23:19.202Z,12.60
2024-02-03T07:24:19.221Z,12.90
2024-02-03T07:25:19.186Z,12.90
2024-02-03T07:26:19.180Z,12.00
2024-02-03T07:27:19.243Z,11.70
2024-02-03T07:28:19.146Z,10.80
2024-02-03T07:29:19.168Z,11.40
2024-02-03T07:30:19.148Z,10.80
2024-02-03T07:31:19.120Z,11.60
2024-02-03T07:32:19.115Z,12.00
2024-02-03T07:33:19.233Z,10.90
2024-02-03T07:34:19.250Z,11.40
2024-02-03T07:35:19.236Z,11.30
2024-02-03T07:36:19.117Z,11.40
2024-02-03T07:37:19.046Z,11.00
2024-02-03T07:38:19.051Z,11.30
2024-02-03T07:39:19.035Z,11.60
2024-02-03T07:40:19.035Z,10.90
2024-02-03T07:41:19.006Z,10.60
2024-02-03T07:42:18.998Z,10.60
2024-02-03T07:43:20.526Z,11.20
2024-02-03T07:44:18.977Z,10.00
2024-02-03T07:45:18.993Z,11.30
2024-02-03T07:46:18.943Z,10.60
2024-02-03T07:47:18.929Z,10.00
2024-02-03T07:48:19.103Z,10.90
2024-02-03T07:49:18.991Z,11.30
2024-02-03T07:50:18.924Z,11.00
2024-02-03T07:51:18.936Z,9.80
2024-02-03T07:52:18.885Z,10.60
2024-02-03T07:53:18.948Z,10.90
2024-02-03T07:54:18.981Z,10.40
2024-02-03T07:55:18.893Z,10.20
2024-02-03T07:56:18.834Z,10.00
2024-02-03T07:57:18.836Z,11.10
2024-02-03T07:58:18.812Z,10.20
2024-02-03T07:59:18.818Z,10.50
2024-02-03T08:00:18.871Z,10.30
2024-02-03T08:01:18.832Z,11.10
2024-02-03T08:02:18.771Z,11.50
2024-02-03T08:03:18.831Z,10.30
2024-02-03T08:04:18.882Z,10.30
2024-02-03T08:05:18.819Z,10.90
2024-02-03T08:06:19.000Z,12.00
2024-02-03T08:07:18.747Z,10.10
2024-02-03T08:08:18.709Z,10.20
2024-02-03T08:09:18.730Z,10.90
2024-02-03T08:10:18.678Z,11.20
2024-02-03T08:11:18.691Z,9.90
2024-02-03T08:12:18.689Z,10.50
2024-02-03T08:13:18.664Z,10.80
2024-02-03T08:14:18.636Z,11.90
2024-02-03T08:15:18.628Z,11.60
2024-02-03T08:16:18.616Z,10.90
2024-02-03T08:17:18.620Z,10.00
2024-02-03T08:18:18.696Z,10.10
2024-02-03T08:19:18.726Z,12.90
2024-02-03T08:20:18.586Z,11.00
2024-02-03T08:21:18.593Z,12.10
2024-02-03T08:22:18.608Z,12.40
2024-02-03T08:23:18.557Z,11.50
2024-02-03T08:24:18.549Z,10.70
2024-02-03T08:25:18.521Z,13.10
2024-02-03T08:26:18.561Z,11.40
2024-02-03T08:27:18.568Z,11.50
2024-02-03T08:28:18.518Z,10.70
2024-02-03T08:29:18.483Z,11.90
2024-02-03T08:30:18.493Z,11.90
2024-02-03T08:31:18.477Z,11.60
2024-02-03T08:32:18.450Z,11.90
2024-02-03T08:33:18.543Z,11.00
2024-02-03T08:34:18.570Z,12.50
2024-02-03T08:35:19.166Z,13.40
2024-02-03T08:36:18.446Z,13.00
2024-02-03T08:37:18.382Z,11.70
2024-02-03T08:38:18.383Z,13.70
2024-02-03T08:40:18.379Z,12.40
2024-02-03T08:41:18.353Z,13.40
2024-02-03T08:42:18.351Z,13.40
2024-02-03T08:43:18.397Z,13.50
2024-02-03T08:44:18.311Z,13.20
2024-02-03T08:45:18.335Z,12.90
2024-02-03T08:46:18.293Z,12.00
2024-02-03T08:47:18.274Z,14.30
2024-02-03T08:48:18.437Z,13.40
2024-02-03T08:49:18.450Z,13.10
2024-02-03T08:50:18.249Z,11.40
2024-02-03T08:51:18.279Z,12.80
2024-02-03T08:52:18.375Z,12.10
2024-02-03T08:53:18.269Z,12.20
2024-02-03T08:54:18.226Z,13.20
2024-02-03T08:55:18.277Z,12.70
2024-02-03T08:56:18.236Z,12.90
2024-02-03T08:57:18.267Z,15.70
2024-02-03T08:58:18.155Z,14.40
2024-02-03T08:59:18.204Z,16.00
2024-02-03T09:00:18.166Z,13.20
2024-02-03T09:01:18.176Z,14.80
2024-02-03T09:02:18.136Z,12.90
2024-02-03T09:03:18.191Z,13.80
2024-02-03T09:04:18.241Z,13.50
2024-02-03T09:05:18.116Z,14.60
2024-02-03T09:06:18.099Z,13.60
2024-02-03T09:07:18.066Z,14.30
2024-02-03T09:08:18.054Z,12.70
2024-02-03T09:09:18.053Z,14.90
2024-02-03T09:10:18.022Z,15.00
2024-02-03T09:11:18.016Z,14.10
2024-02-03T09:12:18.008Z,14.60
2024-02-03T09:13:18.004Z,13.90
2024-02-03T09:14:17.994Z,13.30
2024-02-03T09:15:18.051Z,14.60
2024-02-03T09:16:17.967Z,14.10
2024-02-03T09:17:17.945Z,14.90
2024-02-03T09:18:18.142Z,15.00
2024-02-03T09:19:18.170Z,15.10
2024-02-03T09:20:17.986Z,14.40
2024-02-03T09:21:20.462Z,14.00
2024-02-03T09:22:17.910Z,13.00
2024-02-03T09:23:17.899Z,13.80
2024-02-03T09:24:17.890Z,13.30
2024-02-03T09:25:17.855Z,13.50
2024-02-03T09:26:17.860Z,12.80
2024-02-03T09:27:17.864Z,11.90
2024-02-03T09:28:17.840Z,12.50
2024-02-03T09:29:17.821Z,12.00
2024-02-03T09:30:17.855Z,14.00
2024-02-03T09:31:17.790Z,13.70
2024-02-03T09:32:17.794Z,12.10
2024-02-03T09:33:17.851Z,11.90
2024-02-03T09:34:17.858Z,12.80
2024-02-03T09:35:17.749Z,11.50
2024-02-03T09:36:17.763Z,13.10
2024-02-03T09:38:17.837Z,11.60
2024-02-03T09:39:17.741Z,12.40
2024-02-03T09:40:17.695Z,12.40
2024-02-03T09:41:17.690Z,11.00
2024-02-03T09:42:17.733Z,12.80
2024-02-03T09:43:17.660Z,11.90
2024-02-03T09:44:17.678Z,13.30
2024-02-03T09:45:17.664Z,14.40
2024-02-03T09:46:17.649Z,11.00
2024-02-03T09:47:17.634Z,12.30
2024-02-03T09:48:17.728Z,10.90
2024-02-03T09:49:17.694Z,12.50
2024-02-03T09:50:17.600Z,11.00
2024-02-03T09:51:17.606Z,12.60
2024-02-03T09:52:17.574Z,11.80
2024-02-03T09:53:17.545Z,11.80
2024-02-03T09:54:17.584Z,9.80
2024-02-03T09:55:17.550Z,10.40
2024-02-03T09:56:17.520Z,10.50
2024-02-03T09:57:17.553Z,11.00
2024-02-03T09:58:17.539Z,11.50
2024-02-03T09:59:17.506Z,9.90
2024-02-03T10:00:17.544Z,11.30
2024-02-03T10:01:17.548Z,11.50
2024-02-03T10:02:17.464Z,11.40
2024-02-03T10:03:17.594Z,10.50
2024-02-03T10:04:17.539Z,10.90
2024-02-03T10:05:17.415Z,12.00
2024-02-03T10:06:17.492Z,10.80
2024-02-03T10:07:17.392Z,10.80
2024-02-03T10:08:17.401Z,11.50
2024-02-03T10:09:17.427Z,11.90
2024-02-03T10:11:17.426Z,11.30
2024-02-03T10:12:18.960Z,11.60
2024-02-03T10:13:17.362Z,11.90
2024-02-03T10:14:17.328Z,12.90
2024-02-03T10:15:17.326Z,10.20
2024-02-03T10:16:17.309Z,11.00
2024-02-03T10:17:17.282Z,11.00
2024-02-03T10:18:17.342Z,11.20
2024-02-03T10:19:17.380Z,11.20
2024-02-03T10:20:17.302Z,10.70
2024-02-03T10:21:17.264Z,12.00
2024-02-03T10:22:17.233Z,11.30
2024-02-03T10:23:17.253Z,10.10
2024-02-03T10:24:17.215Z,11.90
2024-02-03T10:25:20.372Z,12.30
2024-02-03T10:26:17.194Z,10.50
2024-02-03T10:27:17.218Z,12.00
2024-02-03T10:28:17.172Z,12.60
2024-02-03T10:29:17.147Z,11.40
2024-02-03T10:30:17.164Z,12.40
2024-02-03T10:31:17.165Z,12.70
2024-02-03T10:32:17.127Z,11.60
2024-02-03T10:33:17.240Z,11.70
2024-02-03T10:34:17.168Z,10.80
2024-02-03T10:35:17.100Z,10.50
2024-02-03T10:36:17.097Z,12.80
2024-02-03T10:37:17.113Z,10.60
2024-02-03T10:38:17.051Z,13.30
2024-02-03T10:39:17.091Z,12.10
2024-02-03T10:40:17.041Z,13.30
2024-02-03T10:41:17.024Z,10.80
2024-02-03T10:42:17.059Z,10.70
2024-02-03T10:43:17.016Z,10.60
2024-02-03T10:44:16.982Z,12.20
2024-02-03T10:45:17.002Z,13.30
2024-02-03T10:46:16.975Z,10.30
2024-02-03T10:47:16.947Z,11.10
2024-02-03T10:48:17.573Z,10.60
2024-02-03T10:49:17.026Z,12.20
2024-02-03T10:50:16.918Z,12.30
2024-02-03T10:51:16.938Z,11.60
2024-02-03T10:52:16.933Z,11.20
2024-02-03T10:53:16.885Z,11.00
2024-02-03T10:54:16.936Z,10.40
2024-02-03T10:55:16.878Z,13.60
2024-02-03T10:56:16.945Z,12.60
2024-02-03T10:57:16.874Z,14.40
2024-02-03T10:58:16.826Z,11.80
2024-02-03T10:59:16.814Z,10.00
2024-02-03T11:00:16.858Z,12.80
2024-02-03T11:01:17.107Z,12.60
2024-02-03T11:02:16.787Z,11.90
2024-02-03T11:03:16.802Z,12.70
2024-02-03T11:04:16.909Z,13.20
2024-02-03T11:05:16.802Z,12.30
2024-02-03T11:06:16.794Z,13.30
2024-02-03T11:07:16.731Z,12.60
2024-02-03T11:08:16.715Z,12.00
2024-02-03T11:09:16.748Z,12.30
2024-02-03T11:10:16.702Z,13.20
2024-02-03T11:11:16.688Z,11.30
2024-02-03T11:12:16.687Z,14.10
2024-02-03T11:13:16.699Z,13.00
2024-02-03T11:14:16.748Z,13.40
2024-02-03T11:15:16.657Z,13.40
2024-02-03T11:16:16.632Z,13.70
2024-02-03T11:17:16.619Z,13.70
2024-02-03T11:18:16.954Z,15.50
2024-02-03T11:19:16.663Z,14.50
2024-02-03T11:20:16.612Z,13.20
2024-02-03T11:21:16.616Z,13.50
2024-02-03T11:22:16.557Z,12.70
2024-02-03T11:23:16.562Z,14.20
2024-02-03T11:24:16.555Z,14.60
2024-02-03T11:25:16.532Z,14.80
2024-02-03T11:26:16.519Z,13.00
2024-02-03T11:27:16.539Z,13.40
2024-02-03T11:28:16.502Z,12.80
2024-02-03T11:29:16.492Z,13.60
2024-02-03T11:30:16.512Z,13.80
2024-02-03T11:31:16.465Z,15.10
2024-02-03T11:32:16.464Z,16.50
2024-02-03T11:33:16.605Z,14.60
2024-02-03T11:34:16.515Z,15.60
2024-02-03T11:35:16.418Z,14.10
2024-02-03T11:36:16.481Z,16.70
2024-02-03T11:37:16.409Z,14.70
2024-02-03T11:38:16.412Z,16.80
2024-02-03T11:39:16.412Z,14.70
2024-02-03T11:40:16.370Z,15.60
2024-02-03T11:41:16.408Z,14.30
2024-02-03T11:42:16.378Z,16.00
2024-02-03T11:43:16.337Z,17.60
2024-02-03T11:44:16.312Z,12.00
2024-02-03T11:45:16.455Z,12.90
2024-02-03T11:46:16.298Z,14.80
2024-02-03T11:47:16.298Z,14.50
2024-02-03T11:48:16.396Z,16.60
2024-02-03T11:49:16.387Z,12.10
2024-02-03T11:50:16.254Z,15.70
2024-02-03T11:51:16.656Z,16.60
2024-02-03T11:52:16.249Z,14.10
2024-02-03T11:53:16.218Z,13.10
2024-02-03T11:54:16.218Z,13.40
2024-02-03T11:55:16.210Z,15.90
2024-02-03T11:56:16.207Z,15.60
2024-02-03T11:57:16.202Z,16.60
2024-02-03T11:58:16.154Z,16.10
2024-02-03T11:59:16.148Z,13.90
2024-02-03T12:00:16.189Z,15.60
2024-02-03T12:01:16.172Z,14.00
2024-02-03T12:02:16.110Z,12.90
2024-02-03T12:03:16.171Z,17.70
2024-02-03T12:04:16.181Z,13.60
2024-02-03T12:05:16.137Z,16.00
2024-02-03T12:06:16.106Z,14.90
2024-02-03T12:07:16.094Z,16.80
2024-02-03T12:08:16.092Z,15.60
2024-02-03T12:09:16.060Z,13.10
2024-02-03T12:10:16.051Z,13.90
2024-02-03T12:11:16.106Z,16.20
2024-02-03T12:12:16.042Z,13.90
2024-02-03T12:13:16.008Z,15.60
2024-02-03T12:14:15.988Z,18.10
2024-02-03T12:15:16.032Z,15.50
2024-02-03T12:16:15.972Z,13.90
2024-02-03T12:17:15.987Z,14.00
2024-02-03T12:18:15.986Z,13.10
2024-02-03T12:19:16.227Z,13.60
2024-02-03T12:20:15.918Z,13.40
2024-02-03T12:21:15.919Z,11.80
2024-02-03T12:22:15.897Z,15.90
2024-02-03T12:23:19.874Z,13.70
2024-02-03T12:24:15.904Z,13.20
2024-02-03T12:25:15.874Z,12.90
2024-02-03T12:26:15.844Z,16.00
2024-02-03T12:27:15.876Z,10.90
2024-02-03T12:28:15.879Z,15.50
2024-02-03T12:29:15.827Z,14.90
2024-02-03T12:30:15.830Z,13.10
2024-02-03T12:31:15.809Z,12.60
2024-02-03T12:32:15.790Z,11.30
2024-02-03T12:33:15.886Z,12.30
2024-02-03T12:34:15.908Z,12.80
2024-02-03T12:35:15.805Z,11.10
2024-02-03T12:36:15.797Z,11.80
2024-02-03T12:37:15.732Z,11.60
2024-02-03T12:38:15.740Z,12.40
2024-02-03T12:39:15.749Z,12.70
2024-02-03T12:40:15.690Z,15.00
2024-02-03T12:41:15.694Z,11.70
2024-02-03T12:42:15.714Z,12.90
2024-02-03T12:43:15.676Z,10.60
2024-02-03T12:44:15.650Z,13.20
2024-02-03T12:45:15.671Z,11.50
2024-02-03T12:46:15.666Z,10.90
2024-02-03T12:47:15.618Z,13.20
2024-02-03T12:48:15.861Z,11.50
2024-02-03T12:49:15.769Z,11.50
2024-02-03T12:50:15.694Z,10.60
2024-02-03T12:51:15.665Z,10.60
2024-02-03T12:52:17.691Z,9.40
2024-02-03T12:53:15.569Z,12.20
2024-02-03T12:54:15.612Z,10.90
2024-02-03T12:55:15.530Z,10.30